createdAt,value
2023-09-09T00:02:22.856Z,16.30
2023-09-09T00:04:53.684Z,16.20
2023-09-09T00:07:21.627Z,16.10
2023-09-09T00:09:51.127Z,16.10
2023-09-09T00:12:19.014Z,16.10
2023-09-09T00:14:46.842Z,16.00
2023-09-09T00:17:14.717Z,15.90
2023-09-09T00:19:42.567Z,15.90
2023-09-09T00:22:10.443Z,15.80
2023-09-09T00:24:38.306Z,15.80
2023-09-09T00:27:07.654Z,15.90
2023-09-09T00:29:35.476Z,15.80
2023-09-09T00:32:03.361Z,15.70
2023-09-09T00:34:31.994Z,15.70
2023-09-09T00:36:59.928Z,15.70
2023-09-09T00:39:27.791Z,15.60
2023-09-09T00:41:55.649Z,15.60
2023-09-09T00:44:24.881Z,15.60
2023-09-09T00:46:53.961Z,15.50
2023-09-09T00:49:22.478Z,15.50
2023-09-09T00:51:51.230Z,15.50
2023-09-09T00:54:19.207Z,15.50
2023-09-09T00:56:47.433Z,15.50
2023-09-09T00:59:15.604Z,15.50
2023-09-09T01:01:46.394Z,15.50
2023-09-09T01:04:14.425Z,15.40
2023-09-09T01:06:42.985Z,15.40
2023-09-09T01:09:10.911Z,15.40
2023-09-09T01:11:38.795Z,15.40
2023-09-09T01:14:06.787Z,15.30
2023-09-09T01:16:34.813Z,15.30
2023-09-09T01:19:04.361Z,15.30
2023-09-09T01:21:34.066Z,15.20
2023-09-09T01:24:03.444Z,15.30
2023-09-09T01:26:31.331Z,15.30
2023-09-09T01:28:59.228Z,15.20
2023-09-09T01:31:27.182Z,15.30
2023-09-09T01:33:57.941Z,15.30
2023-09-09T01:36:26.152Z,15.30
2023-09-09T01:38:54.003Z,15.40
2023-09-09T01:41:23.292Z,15.40
2023-09-09T01:43:51.137Z,15.40
2023-09-09T01:46:19.349Z,15.40
2023-09-09T01:48:47.313Z,15.40
2023-09-09T01:51:15.163Z,15.30
2023-09-09T01:53:42.969Z,15.10
2023-09-09T01:56:10.886Z,15.10
2023-09-09T01:58:40.062Z,15.00
2023-09-09T02:01:07.964Z,15.00
2023-09-09T02:03:36.091Z,15.00
2023-09-09T02:06:04.483Z,14.90
2023-09-09T02:08:32.382Z,14.80
2023-09-09T02:11:00.242Z,14.70
2023-09-09T02:13:28.187Z,14.70
2023-09-09T02:16:06.456Z,14.60
2023-09-09T02:18:35.125Z,14.60
2023-09-09T02:21:03.245Z,14.60
2023-09-09T02:23:31.175Z,14.70
2023-09-09T02:25:59.160Z,14.60
2023-09-09T02:28:27.491Z,14.60
2023-09-09T02:30:55.830Z,14.60
2023-09-09T02:33:25.223Z,14.60
2023-09-09T02:35:53.400Z,14.70
2023-09-09T02:38:21.313Z,14.70
2023-09-09T02:40:49.131Z,14.70
2023-09-09T02:43:17.013Z,14.80
2023-09-09T02:45:44.857Z,14.70
2023-09-09T02:48:12.711Z,14.70
2023-09-09T02:50:42.093Z,14.70
2023-09-09T02:53:09.958Z,14.60
2023-09-09T02:55:37.815Z,14.60
2023-09-09T02:58:06.122Z,14.60
2023-09-09T03:00:34.018Z,14.60
2023-09-09T03:03:01.968Z,14.60
2023-09-09T03:05:29.916Z,14.50
2023-09-09T03:07:59.893Z,14.50
2023-09-09T03:10:27.894Z,14.40
2023-09-09T03:12:57.436Z,14.40
2023-09-09T03:15:25.391Z,14.30
2023-09-09T03:17:53.581Z,14.30
2023-09-09T03:20:23.131Z,14.30
2023-09-09T03:22:53.161Z,14.30
2023-09-09T03:25:22.322Z,14.20
2023-09-09T03:27:50.152Z,14.20
2023-09-09T03:30:18.100Z,14.20
2023-09-09T03:32:45.946Z,14.10
2023-09-09T03:35:13.939Z,14.10
2023-09-09T03:37:41.775Z,14.20
2023-09-09T03:40:10.625Z,14.20
2023-09-09T03:42:40.420Z,14.20
2023-09-09T03:45:10.673Z,14.30
2023-09-09T03:47:38.639Z,14.20
2023-09-09T03:50:07.101Z,14.20
2023-09-09T03:52:34.931Z,14.30
2023-09-09T03:55:02.786Z,14.30
2023-09-09T03:57:30.658Z,14.30
2023-09-09T03:59:59.847Z,14.30
2023-09-09T04:02:27.725Z,14.30
2023-09-09T04:04:55.546Z,14.30
2023-09-09T04:07:23.423Z,14.30
2023-09-09T04:09:51.259Z,14.20
2023-09-09T04:12:19.148Z,14.20
2023-09-09T04:14:47.237Z,14.10
2023-09-09T04:17:16.476Z,14.10
2023-09-09T04:19:44.419Z,14.20
2023-09-09T04:22:12.253Z,14.20
2023-09-09T04:24:40.188Z,14.20
2023-09-09T04:27:08.079Z,14.20
2023-09-09T04:29:35.957Z,14.20
2023-09-09T04:32:03.929Z,14.30
2023-09-09T04:34:33.112Z,14.40
2023-09-09T04:37:00.949Z,14.40
2023-09-09T04:39:28.752Z,14.30
2023-09-09T04:41:56.572Z,14.20
2023-09-09T04:44:24.457Z,14.10
2023-09-09T04:46:52.337Z,14.10
2023-09-09T04:49:20.381Z,14.00
2023-09-09T04:51:49.565Z,13.90
2023-09-09T04:54:19.272Z,13.80
2023-09-09T04:56:47.737Z,13.80
2023-09-09T04:59:15.643Z,13.80
2023-09-09T05:01:43.749Z,13.70
2023-09-09T05:04:11.712Z,13.70
2023-09-09T05:06:39.631Z,13.80
2023-09-09T05:09:08.860Z,13.80
2023-09-09T05:11:36.714Z,13.90
2023-09-09T05:14:04.569Z,13.90
2023-09-09T05:16:33.049Z,14.00
2023-09-09T05:19:00.970Z,14.10
2023-09-09T05:21:28.831Z,14.10
2023-09-09T05:23:56.667Z,14.30
2023-09-09T05:26:25.872Z,14.50
2023-09-09T05:28:53.877Z,14.90
2023-09-09T05:31:21.812Z,15.30
2023-09-09T05:33:49.689Z,15.50
2023-09-09T05:36:17.576Z,15.90
2023-09-09T05:38:45.379Z,16.20
2023-09-09T05:41:13.230Z,16.50
2023-09-09T05:43:42.395Z,16.80
2023-09-09T05:46:10.346Z,16.90
2023-09-09T05:48:38.541Z,16.80
2023-09-09T05:51:06.350Z,16.90
2023-09-09T05:53:34.405Z,16.80
2023-09-09T05:56:02.455Z,16.90
2023-09-09T05:58:30.446Z,17.10
2023-09-09T06:00:59.674Z,17.40
2023-09-09T06:03:28.232Z,17.70
2023-09-09T06:05:56.450Z,18.10
2023-09-09T06:08:24.534Z,18.30
2023-09-09T06:10:52.427Z,18.60
2023-09-09T06:13:20.270Z,19.20
2023-09-09T06:15:48.245Z,19.60
2023-09-09T06:18:17.435Z,19.90
2023-09-09T06:20:48.868Z,19.80
2023-09-09T06:23:16.974Z,19.50
2023-09-09T06:25:44.838Z,19.90
2023-09-09T06:28:12.714Z,20.80
2023-09-09T06:30:44.069Z,21.30
2023-09-09T06:33:12.297Z,21.80
2023-09-09T06:35:50.326Z,22.10
2023-09-09T06:38:18.444Z,22.60
2023-09-09T06:40:46.993Z,22.70
2023-09-09T06:43:15.808Z,23.00
2023-09-09T06:45:43.651Z,22.70
2023-09-09T06:48:11.805Z,22.30
2023-09-09T06:50:39.818Z,22.00
2023-09-09T06:53:09.044Z,21.90
2023-09-09T06:55:36.898Z,21.80
2023-09-09T06:58:05.338Z,21.80
2023-09-09T07:00:34.222Z,21.70
2023-09-09T07:03:02.101Z,21.80
2023-09-09T07:05:30.001Z,21.90
2023-09-09T07:07:57.837Z,22.20
2023-09-09T07:10:27.135Z,22.10
2023-09-09T07:12:55.844Z,22.10
2023-09-09T07:15:23.703Z,22.20
2023-09-09T07:17:51.642Z,22.40
2023-09-09T07:20:19.578Z,22.80
2023-09-09T07:22:48.242Z,23.10
2023-09-09T07:25:16.197Z,23.10
2023-09-09T07:27:45.489Z,23.20
2023-09-09T07:30:13.564Z,23.50
2023-09-09T07:32:41.581Z,23.60
2023-09-09T07:35:10.263Z,24.10
2023-09-09T07:37:38.153Z,24.30
2023-09-09T07:40:07.732Z,24.70
2023-09-09T07:42:35.567Z,25.20
2023-09-09T07:45:05.256Z,25.30
2023-09-09T07:47:33.111Z,25.60
2023-09-09T07:50:00.971Z,25.60
2023-09-09T07:52:29.400Z,25.40
2023-09-09T07:54:58.742Z,25.70
2023-09-09T07:57:26.660Z,25.90
2023-09-09T07:59:54.491Z,26.40
2023-09-09T08:02:24.250Z,26.30
2023-09-09T08:04:52.161Z,25.70
2023-09-09T08:07:20.122Z,25.60
2023-09-09T08:09:47.991Z,25.40
2023-09-09T08:12:15.839Z,25.30
2023-09-09T08:14:44.173Z,25.50
2023-09-09T08:17:12.831Z,25.20
2023-09-09T08:19:44.338Z,25.10
2023-09-09T08:22:12.382Z,25.30
2023-09-09T08:24:40.243Z,25.80
2023-09-09T08:27:08.082Z,26.00
2023-09-09T08:29:35.903Z,26.00
2023-09-09T08:32:03.957Z,26.50
2023-09-09T08:34:31.788Z,26.10
2023-09-09T08:37:00.949Z,26.20
2023-09-09T08:39:29.838Z,26.10
2023-09-09T08:42:04.623Z,26.60
2023-09-09T08:44:39.857Z,27.20
2023-09-09T08:47:08.128Z,27.40
2023-09-09T08:49:37.697Z,27.60
2023-09-09T08:52:17.476Z,27.70
2023-09-09T08:54:46.063Z,27.90
2023-09-09T08:57:13.985Z,27.60
2023-09-09T08:59:43.372Z,27.90
2023-09-09T09:02:12.335Z,28.10
2023-09-09T09:04:40.640Z,27.60
2023-09-09T09:07:09.921Z,27.10
2023-09-09T09:09:37.780Z,27.00
2023-09-09T09:12:06.318Z,27.70
2023-09-09T09:14:34.268Z,28.40
2023-09-09T09:17:04.903Z,28.20
2023-09-09T09:19:32.790Z,27.50
2023-09-09T09:22:02.034Z,27.50
2023-09-09T09:24:31.221Z,27.60
2023-09-09T09:27:00.062Z,27.20
2023-09-09T09:29:39.824Z,27.10
2023-09-09T09:32:08.013Z,27.20
2023-09-09T09:34:36.555Z,27.70
2023-09-09T09:37:11.555Z,28.50
2023-09-09T09:39:41.418Z,28.20
2023-09-09T09:42:13.164Z,27.80
2023-09-09T09:44:41.361Z,27.60
2023-09-09T09:47:12.252Z,28.10
2023-09-09T09:49:41.726Z,28.40
2023-09-09T09:52:10.701Z,28.90
2023-09-09T09:54:40.884Z,29.20
2023-09-09T09:57:09.300Z,28.00
2023-09-09T09:59:39.328Z,28.20
2023-09-09T10:02:07.610Z,28.10
2023-09-09T10:04:40.246Z,28.50
2023-09-09T10:07:11.588Z,28.10
2023-09-09T10:09:46.942Z,28.00
2023-09-09T10:12:29.815Z,28.70
2023-09-09T10:15:07.909Z,28.10
2023-09-09T10:17:37.488Z,28.60
2023-09-09T10:20:07.798Z,29.00
2023-09-09T10:22:35.929Z,28.50
2023-09-09T10:25:06.827Z,28.20
2023-09-09T10:27:35.239Z,28.50
2023-09-09T10:30:04.331Z,29.20
2023-09-09T10:32:32.945Z,29.10
2023-09-09T10:35:02.272Z,29.10
2023-09-09T10:37:34.467Z,29.00
2023-09-09T10:40:04.127Z,29.10
2023-09-09T10:42:33.974Z,28.90
2023-09-09T10:45:26.923Z,28.60
2023-09-09T10:48:00.244Z,28.40
2023-09-09T10:50:46.047Z,28.50
2023-09-09T10:53:19.886Z,29.00
2023-09-09T10:55:49.015Z,28.10
2023-09-09T10:58:19.455Z,27.50
2023-09-09T11:00:49.702Z,27.10
2023-09-09T11:03:20.466Z,27.70
2023-09-09T11:06:08.784Z,28.30
2023-09-09T11:08:37.912Z,28.40
2023-09-09T11:11:11.898Z,28.00
2023-09-09T11:13:42.879Z,28.10
2023-09-09T11:16:28.611Z,28.50
2023-09-09T11:18:58.101Z,28.90
2023-09-09T11:21:26.160Z,29.00
2023-09-09T11:23:54.586Z,28.60
2023-09-09T11:26:22.965Z,29.00
2023-09-09T11:28:52.890Z,28.60
2023-09-09T11:31:20.839Z,28.40
2023-09-09T11:33:48.693Z,28.40
2023-09-09T11:36:19.894Z,28.40
2023-09-09T11:38:47.759Z,28.70
2023-09-09T11:41:22.889Z,28.90
2023-09-09T11:44:05.320Z,29.00
2023-09-09T11:46:36.490Z,28.80
2023-09-09T11:49:05.072Z,29.00
2023-09-09T11:51:33.586Z,28.80
2023-09-09T11:54:01.856Z,29.00
2023-09-09T11:56:30.734Z,28.90
2023-09-09T11:58:58.609Z,28.90
2023-09-09T12:01:27.919Z,28.90
2023-09-09T12:04:07.814Z,29.10
2023-09-09T12:06:37.146Z,29.00
2023-09-09T12:09:06.966Z,29.20
2023-09-09T12:11:36.309Z,29.10
2023-09-09T12:14:04.685Z,29.20
2023-09-09T12:16:35.193Z,29.50
2023-09-09T12:19:03.106Z,29.50
2023-09-09T12:21:33.084Z,29.60
2023-09-09T12:24:02.092Z,29.70
2023-09-09T12:26:30.534Z,29.70
2023-09-09T12:29:09.341Z,29.20
2023-09-09T12:31:52.681Z,29.30
2023-09-09T12:34:21.449Z,29.40
2023-09-09T12:36:49.701Z,29.20
2023-09-09T12:39:25.548Z,29.30
2023-09-09T12:42:03.459Z,29.50
2023-09-09T12:44:33.553Z,29.40
2023-09-09T12:47:05.233Z,29.30
2023-09-09T12:49:34.406Z,29.30
2023-09-09T12:52:02.357Z,29.40
2023-09-09T12:54:30.287Z,29.40
2023-09-09T12:56:58.227Z,29.60
2023-09-09T12:59:26.121Z,29.90
2023-09-09T13:01:56.489Z,29.80
2023-09-09T13:04:26.685Z,29.60
2023-09-09T13:06:55.065Z,29.50
2023-09-09T13:09:23.571Z,29.40
2023-09-09T13:11:51.623Z,29.70
2023-09-09T13:14:26.157Z,29.70
2023-09-09T13:16:55.427Z,29.70
2023-09-09T13:19:25.596Z,29.90
2023-09-09T13:21:57.023Z,30.00
2023-09-09T13:24:24.877Z,29.90
2023-09-09T13:26:52.742Z,29.20
2023-09-09T13:29:20.592Z,29.40
2023-09-09T13:31:48.576Z,29.50
2023-09-09T13:34:16.544Z,29.50
2023-09-09T13:36:44.380Z,29.70
2023-09-09T13:39:13.564Z,29.50
2023-09-09T13:41:41.557Z,29.40
2023-09-09T13:44:09.431Z,29.40
2023-09-09T13:46:37.312Z,29.20
2023-09-09T13:49:05.337Z,29.50
2023-09-09T13:51:33.227Z,29.60
2023-09-09T13:54:01.323Z,29.60
2023-09-09T13:56:30.752Z,29.90
2023-09-09T13:58:59.687Z,29.70
2023-09-09T14:01:27.842Z,29.50
2023-09-09T14:03:55.990Z,29.60
2023-09-09T14:06:23.929Z,29.50
2023-09-09T14:08:52.719Z,29.50
2023-09-09T14:11:20.639Z,29.50
2023-09-09T14:13:49.839Z,29.50
2023-09-09T14:16:17.745Z,29.80
2023-09-09T14:18:45.729Z,29.90
2023-09-09T14:21:13.613Z,29.60
2023-09-09T14:23:42.026Z,29.70
2023-09-09T14:26:09.931Z,29.60
2023-09-09T14:28:38.044Z,29.40
2023-09-09T14:31:07.519Z,29.50
2023-09-09T14:33:35.435Z,29.60
2023-09-09T14:36:03.395Z,29.80
2023-09-09T14:38:31.263Z,29.70
2023-09-09T14:40:59.185Z,29.80
2023-09-09T14:43:27.071Z,29.90
2023-09-09T14:45:54.925Z,29.70
2023-09-09T14:48:24.252Z,29.60
2023-09-09T14:50:54.350Z,29.60
2023-09-09T14:53:22.334Z,29.50
2023-09-09T14:55:50.525Z,29.50
2023-09-09T14:58:18.398Z,29.50
2023-09-09T15:00:46.348Z,29.30
2023-09-09T15:03:14.225Z,29.20
2023-09-09T15:05:43.407Z,29.30
2023-09-09T15:08:11.254Z,29.30
2023-09-09T15:10:39.064Z,29.20
2023-09-09T15:13:06.905Z,29.30
2023-09-09T15:15:38.635Z,29.50
2023-09-09T15:18:08.535Z,29.30
2023-09-09T15:20:36.545Z,29.30
2023-09-09T15:23:05.960Z,29.40
2023-09-09T15:25:33.849Z,29.30
2023-09-09T15:28:01.711Z,29.20
2023-09-09T15:30:29.532Z,29.20
2023-09-09T15:32:57.491Z,29.10
2023-09-09T15:35:29.516Z,29.00
2023-09-09T15:37:57.413Z,29.00
2023-09-09T15:40:26.612Z,29.00
2023-09-09T15:42:55.362Z,29.00
2023-09-09T15:45:23.295Z,29.10
2023-09-09T15:47:51.235Z,29.00
2023-09-09T15:50:19.313Z,28.90
2023-09-09T15:52:47.500Z,28.70
2023-09-09T15:55:15.551Z,28.60
2023-09-09T15:57:44.702Z,28.50
2023-09-09T16:00:12.878Z,28.50
2023-09-09T16:02:40.808Z,28.40
2023-09-09T16:05:08.813Z,28.40
2023-09-09T16:07:41.879Z,28.30
2023-09-09T16:10:10.779Z,28.20
2023-09-09T16:12:38.621Z,28.10
2023-09-09T16:15:09.637Z,28.10
2023-09-09T16:17:37.522Z,28.10
2023-09-09T16:20:06.213Z,28.00
2023-09-09T16:22:34.150Z,28.00
2023-09-09T16:25:04.416Z,28.00
2023-09-09T16:27:32.687Z,27.90
2023-09-09T16:30:01.007Z,27.90
2023-09-09T16:32:30.447Z,27.80
2023-09-09T16:35:00.156Z,27.80
2023-09-09T16:37:28.237Z,27.80
2023-09-09T16:39:56.241Z,27.60
2023-09-09T16:42:24.127Z,27.50
2023-09-09T16:44:51.949Z,27.40
2023-09-09T16:47:19.789Z,27.40
2023-09-09T16:49:49.737Z,27.40
2023-09-09T16:52:17.719Z,27.40
2023-09-09T16:54:45.590Z,27.30
2023-09-09T16:57:13.420Z,27.20
2023-09-09T16:59:42.221Z,27.20
2023-09-09T17:02:10.906Z,27.20
2023-09-09T17:04:38.875Z,27.10
2023-09-09T17:07:08.097Z,27.00
2023-09-09T17:09:35.983Z,26.90
2023-09-09T17:12:04.105Z,26.70
2023-09-09T17:14:32.610Z,26.60
2023-09-09T17:17:00.637Z,26.30
2023-09-09T17:19:29.696Z,26.20
2023-09-09T17:21:59.172Z,26.10
2023-09-09T17:24:28.351Z,26.10
2023-09-09T17:26:56.234Z,26.00
2023-09-09T17:29:24.111Z,25.90
2023-09-09T17:31:52.373Z,25.90
2023-09-09T17:34:20.278Z,25.80
2023-09-09T17:36:48.130Z,25.60
2023-09-09T17:39:17.132Z,25.50
2023-09-09T17:41:46.451Z,25.30
2023-09-09T17:44:14.521Z,25.20
2023-09-09T17:46:42.509Z,25.00
2023-09-09T17:49:10.424Z,24.90
2023-09-09T17:51:38.263Z,24.70
2023-09-09T17:54:06.539Z,24.50
2023-09-09T17:56:35.367Z,24.30
2023-09-09T17:59:04.717Z,24.20
2023-09-09T18:01:32.640Z,24.00
2023-09-09T18:04:02.152Z,23.90
2023-09-09T18:06:30.175Z,23.80
2023-09-09T18:08:58.047Z,23.80
2023-09-09T18:11:25.914Z,23.70
2023-09-09T18:13:53.925Z,23.70
2023-09-09T18:16:24.310Z,23.70
2023-09-09T18:18:52.316Z,23.80
2023-09-09T18:21:20.161Z,23.80
2023-09-09T18:23:48.010Z,23.80
2023-09-09T18:26:15.852Z,23.80
2023-09-09T18:28:43.683Z,23.60
2023-09-09T18:31:13.084Z,23.30
2023-09-09T18:33:42.560Z,23.10
2023-09-09T18:36:10.413Z,22.90
2023-09-09T18:38:40.064Z,22.80
2023-09-09T18:41:08.091Z,22.60
2023-09-09T18:43:36.385Z,22.50
2023-09-09T18:46:04.354Z,22.50
2023-09-09T18:48:32.219Z,22.40
2023-09-09T18:51:01.439Z,22.30
2023-09-09T18:53:31.663Z,22.20
2023-09-09T18:55:59.579Z,22.10
2023-09-09T18:58:27.457Z,22.00
2023-09-09T19:00:55.601Z,22.00
2023-09-09T19:03:24.302Z,21.90
2023-09-09T19:05:52.449Z,21.80
2023-09-09T19:08:21.610Z,21.80
2023-09-09T19:10:49.505Z,21.70
2023-09-09T19:13:17.351Z,21.60
2023-09-09T19:15:45.224Z,21.60
2023-09-09T19:18:13.096Z,21.50
2023-09-09T19:20:40.954Z,21.40
2023-09-09T19:23:08.810Z,21.30
2023-09-09T19:25:38.996Z,21.20
2023-09-09T19:28:08.993Z,21.20
2023-09-09T19:30:37.089Z,21.10
2023-09-09T19:33:05.439Z,21.10
2023-09-09T19:35:33.290Z,21.10
2023-09-09T19:38:02.412Z,21.00
2023-09-09T19:40:30.522Z,20.90
2023-09-09T19:42:59.678Z,20.90
2023-09-09T19:45:27.672Z,20.80
2023-09-09T19:47:55.577Z,20.70
2023-09-09T19:50:23.578Z,20.50
2023-09-09T19:52:51.590Z,20.30
2023-09-09T19:55:19.521Z,20.10
2023-09-09T19:57:47.762Z,20.00
2023-09-09T20:00:17.850Z,19.90
2023-09-09T20:02:46.050Z,19.90
2023-09-09T20:05:13.963Z,19.90
2023-09-09T20:07:41.835Z,19.90
2023-09-09T20:10:11.182Z,19.90
2023-09-09T20:12:39.463Z,19.90
2023-09-09T20:15:08.582Z,19.80
2023-09-09T20:17:38.272Z,19.80
2023-09-09T20:20:11.347Z,19.70
2023-09-09T20:22:39.224Z,19.70
2023-09-09T20:25:07.636Z,19.60
2023-09-09T20:27:35.462Z,19.50
2023-09-09T20:30:04.255Z,19.40
2023-09-09T20:32:32.199Z,19.40
2023-09-09T20:35:09.642Z,19.50
2023-09-09T20:37:51.746Z,19.60
2023-09-09T20:40:21.982Z,19.70
2023-09-09T20:42:56.579Z,19.70
2023-09-09T20:45:25.744Z,19.70
2023-09-09T20:47:55.879Z,19.70
2023-09-09T20:50:26.340Z,19.80
2023-09-09T20:52:55.449Z,19.80
2023-09-09T20:55:24.324Z,19.80
2023-09-09T20:57:52.424Z,19.90
2023-09-09T21:00:21.286Z,19.80
2023-09-09T21:02:51.855Z,19.90
2023-09-09T21:05:21.552Z,19.90
2023-09-09T21:07:51.069Z,19.90
2023-09-09T21:10:19.782Z,19.90
2023-09-09T21:12:49.603Z,19.80
2023-09-09T21:15:18.609Z,19.80
2023-09-09T21:17:46.998Z,19.70
2023-09-09T21:20:15.590Z,19.80
2023-09-09T21:22:43.515Z,19.80
2023-09-09T21:25:12.751Z,19.70
2023-09-09T21:27:40.740Z,19.60
2023-09-09T21:30:09.266Z,19.60
2023-09-09T21:32:37.246Z,19.50
2023-09-09T21:35:05.588Z,19.40
2023-09-09T21:37:33.536Z,19.40
2023-09-09T21:40:01.397Z,19.30
2023-09-09T21:42:30.604Z,19.30
2023-09-09T21:44:58.513Z,19.10
2023-09-09T21:47:26.418Z,19.00
2023-09-09T21:49:54.378Z,18.90
2023-09-09T21:52:22.356Z,18.80
2023-09-09T21:54:50.349Z,18.70
2023-09-09T21:57:18.508Z,18.60
2023-09-09T21:59:47.869Z,18.50
2023-09-09T22:02:15.844Z,18.40
2023-09-09T22:04:43.704Z,18.40
2023-09-09T22:07:11.544Z,18.40
2023-09-09T22:09:39.385Z,18.40
2023-09-09T22:12:07.648Z,18.30
2023-09-09T22:14:35.458Z,18.30
2023-09-09T22:17:05.285Z,18.20
2023-09-09T22:19:33.269Z,18.20
2023-09-09T22:22:01.165Z,18.10
2023-09-09T22:24:29.011Z,18.10
2023-09-09T22:27:00.427Z,18.10
2023-09-09T22:29:28.563Z,18.10
2023-09-09T22:31:58.359Z,18.10
2023-09-09T22:34:27.704Z,18.10
2023-09-09T22:36:56.251Z,18.00
2023-09-09T22:39:24.173Z,18.00
2023-09-09T22:41:52.044Z,17.90
2023-09-09T22:44:19.885Z,17.90
2023-09-09T22:46:47.782Z,17.90
2023-09-09T22:49:16.154Z,17.90
2023-09-09T22:51:45.356Z,17.90
2023-09-09T22:54:13.231Z,18.00
2023-09-09T22:56:41.055Z,18.00
2023-09-09T22:59:10.140Z,17.90
2023-09-09T23:01:39.153Z,17.90
2023-09-09T23:04:07.193Z,17.90
2023-09-09T23:06:35.139Z,17.70
2023-09-09T23:09:04.584Z,17.60
2023-09-09T23:11:32.439Z,17.60
2023-09-09T23:14:00.327Z,17.50
2023-09-09T23:16:28.372Z,17.50
2023-09-09T23:18:56.269Z,17.40
2023-09-09T23:21:24.115Z,17.30
2023-09-09T23:23:52.122Z,17.30
2023-09-09T23:26:21.334Z,17.20
2023-09-09T23:28:49.169Z,17.20
2023-09-09T23:31:17.120Z,17.10
2023-09-09T23:33:44.946Z,17.10
2023-09-09T23:36:12.776Z,17.00
2023-09-09T23:38:41.148Z,17.00
2023-09-09T23:41:09.830Z,16.90
2023-09-09T23:43:39.294Z,16.90
2023-09-09T23:46:07.231Z,16.90
2023-09-09T23:48:35.093Z,16.90
2023-09-09T23:51:03.200Z,16.80
2023-09-09T23:53:31.410Z,16.80
2023-09-09T23:55:59.376Z,16.80
2023-09-09T23:58:27.212Z,16.80
